createdAt,value
2022-11-29T00:00:46.855Z,2.00
2022-11-29T00:05:53.838Z,1.98
2022-11-29T00:11:06.706Z,1.97
2022-11-29T00:16:14.996Z,1.97
2022-11-29T00:21:22.069Z,1.96
2022-11-29T00:26:29.014Z,1.95
2022-11-29T00:31:36.489Z,1.93
2022-11-29T00:36:43.425Z,1.94
2022-11-29T00:41:50.295Z,1.97
2022-11-29T00:46:57.195Z,2.00
2022-11-29T00:52:04.189Z,2.01
2022-11-29T00:57:11.241Z,1.97
2022-11-29T01:02:18.206Z,1.94
2022-11-29T01:07:25.364Z,1.97
2022-11-29T01:12:32.508Z,2.00
2022-11-29T01:17:39.926Z,1.98
2022-11-29T01:22:47.244Z,1.94
2022-11-29T01:27:55.277Z,1.92
2022-11-29T01:33:19.964Z,1.91
2022-11-29T01:38:44.563Z,1.90
2022-11-29T01:44:01.098Z,1.90
2022-11-29T01:49:13.579Z,1.86
2022-11-29T01:54:21.343Z,1.85
2022-11-29T01:59:30.915Z,1.82
2022-11-29T02:04:39.225Z,1.80
2022-11-29T02:09:46.706Z,1.79
2022-11-29T02:15:27.371Z,1.74
2022-11-29T02:21:13.081Z,1.68
2022-11-29T02:26:35.472Z,1.72
2022-11-29T02:32:06.615Z,1.75
2022-11-29T02:37:31.334Z,1.65
2022-11-29T02:43:00.112Z,1.58
2022-11-29T02:48:23.354Z,1.57
2022-11-29T02:53:36.686Z,1.57
2022-11-29T02:58:49.840Z,1.52
2022-11-29T03:04:06.085Z,1.46
2022-11-29T03:09:19.654Z,1.39
2022-11-29T03:14:29.812Z,1.33
2022-11-29T03:20:03.887Z,1.28
2022-11-29T03:25:20.640Z,1.19
2022-11-29T03:30:27.620Z,1.11
2022-11-29T03:35:42.918Z,1.06
2022-11-29T03:40:57.224Z,1.03
2022-11-29T03:46:08.430Z,1.01
2022-11-29T03:51:19.369Z,0.95
2022-11-29T03:56:32.646Z,0.90
2022-11-29T04:02:19.489Z,0.85
2022-11-29T04:07:41.618Z,0.81
2022-11-29T04:13:44.370Z,0.80
2022-11-29T04:19:25.898Z,0.77
2022-11-29T04:24:58.114Z,0.79
2022-11-29T04:30:11.610Z,0.81
2022-11-29T04:35:43.755Z,0.79
2022-11-29T04:41:09.264Z,0.75
2022-11-29T04:46:38.405Z,0.76
2022-11-29T04:52:00.526Z,0.76
2022-11-29T04:57:16.427Z,0.74
2022-11-29T05:02:33.610Z,0.70
2022-11-29T05:07:50.319Z,0.69
2022-11-29T05:13:06.018Z,0.70
2022-11-29T05:18:26.494Z,0.71
2022-11-29T05:23:41.524Z,0.71
2022-11-29T05:28:57.979Z,0.68
2022-11-29T05:34:42.968Z,0.69
2022-11-29T05:40:04.801Z,0.70
2022-11-29T05:45:19.775Z,0.70
2022-11-29T05:50:33.933Z,0.69
2022-11-29T05:55:56.078Z,0.68
2022-11-29T06:01:15.594Z,0.68
2022-11-29T06:06:34.084Z,0.68
2022-11-29T06:11:46.594Z,0.69
2022-11-29T06:17:37.263Z,0.66
2022-11-29T06:23:06.150Z,0.66
2022-11-29T06:28:28.584Z,0.69
2022-11-29T06:33:46.837Z,0.67
2022-11-29T06:38:54.281Z,0.64
2022-11-29T06:44:03.208Z,0.67
2022-11-29T06:49:14.010Z,0.70
2022-11-29T06:54:38.459Z,0.71
2022-11-29T07:00:00.097Z,0.70
2022-11-29T07:05:16.665Z,0.69
2022-11-29T07:10:25.784Z,0.70
2022-11-29T07:15:34.096Z,0.71
2022-11-29T07:20:49.407Z,0.71
2022-11-29T07:26:09.224Z,0.71
2022-11-29T07:31:23.551Z,0.70
2022-11-29T07:36:43.397Z,0.70
2022-11-29T07:42:00.064Z,0.71
2022-11-29T07:47:07.239Z,0.70
2022-11-29T07:52:15.719Z,0.71
2022-11-29T07:57:22.890Z,0.75
2022-11-29T08:02:31.360Z,0.77
2022-11-29T08:07:39.599Z,0.76
2022-11-29T08:12:45.766Z,0.76
2022-11-29T08:17:53.470Z,0.79
2022-11-29T08:23:03.633Z,0.80
2022-11-29T08:28:10.631Z,0.79
2022-11-29T08:33:17.472Z,0.77
2022-11-29T08:38:24.524Z,0.77
2022-11-29T08:43:32.157Z,0.79
2022-11-29T08:48:39.157Z,0.81
2022-11-29T08:53:51.731Z,0.80
2022-11-29T08:58:58.795Z,0.81
2022-11-29T09:04:07.788Z,0.85
2022-11-29T09:09:15.028Z,0.90
2022-11-29T09:14:29.157Z,0.89
2022-11-29T09:19:36.215Z,0.87
2022-11-29T09:24:43.669Z,0.90
2022-11-29T09:29:50.970Z,0.91
2022-11-29T09:34:57.925Z,0.95
2022-11-29T09:40:05.186Z,0.94
2022-11-29T09:45:18.566Z,0.89
2022-11-29T09:50:33.403Z,0.83
2022-11-29T09:55:53.726Z,0.79
2022-11-29T10:01:06.588Z,0.78
2022-11-29T10:06:22.314Z,0.75
2022-11-29T10:11:36.355Z,0.70
2022-11-29T10:16:50.990Z,0.69
2022-11-29T10:22:04.531Z,0.69
2022-11-29T10:27:23.986Z,0.65
2022-11-29T10:32:33.872Z,0.61
2022-11-29T10:37:41.387Z,0.60
2022-11-29T10:42:53.271Z,0.59
2022-11-29T10:48:05.974Z,0.59
2022-11-29T10:53:16.335Z,0.59
2022-11-29T10:58:28.322Z,0.61
2022-11-29T11:03:39.466Z,0.64
2022-11-29T11:08:49.067Z,0.68
2022-11-29T11:14:04.020Z,0.69
2022-11-29T11:19:31.824Z,0.70
2022-11-29T11:24:42.517Z,0.72
2022-11-29T11:29:54.095Z,0.71
2022-11-29T11:35:03.418Z,0.71
2022-11-29T11:40:29.008Z,0.71
2022-11-29T11:45:38.834Z,0.69
2022-11-29T11:50:51.500Z,0.66
2022-11-29T11:56:03.117Z,0.63
2022-11-29T12:01:27.296Z,0.64
2022-11-29T12:06:52.626Z,0.66
2022-11-29T12:12:07.305Z,0.75
2022-11-29T12:17:20.741Z,0.80
2022-11-29T12:22:35.039Z,0.78
2022-11-29T12:27:41.995Z,0.76
2022-11-29T12:33:23.600Z,0.77
2022-11-29T12:38:59.166Z,0.74
2022-11-29T12:44:19.506Z,0.73
2022-11-29T12:49:31.923Z,0.75
2022-11-29T12:54:58.534Z,0.75
2022-11-29T13:00:10.823Z,0.71
2022-11-29T13:05:41.610Z,0.70
2022-11-29T13:11:03.824Z,0.71
2022-11-29T13:16:30.698Z,0.73
2022-11-29T13:21:47.647Z,0.72
2022-11-29T13:26:55.517Z,0.72
2022-11-29T13:32:19.031Z,0.75
2022-11-29T13:37:31.777Z,0.77
2022-11-29T13:42:45.324Z,0.78
2022-11-29T13:47:54.236Z,0.78
2022-11-29T13:53:12.935Z,0.76
2022-11-29T13:58:38.774Z,0.77
2022-11-29T14:03:49.095Z,0.76
2022-11-29T14:09:19.994Z,0.69
2022-11-29T14:14:34.175Z,0.63
2022-11-29T14:19:41.481Z,0.61
2022-11-29T14:25:35.042Z,0.61
2022-11-29T14:30:51.883Z,0.60
2022-11-29T14:36:18.319Z,0.59
2022-11-29T14:41:33.508Z,0.60
2022-11-29T14:46:45.361Z,0.65
2022-11-29T14:52:24.232Z,0.65
2022-11-29T14:58:16.971Z,0.64
2022-11-29T15:03:31.766Z,0.65
2022-11-29T15:08:47.988Z,0.69
2022-11-29T15:14:02.463Z,0.74
2022-11-29T15:19:46.389Z,0.77
2022-11-29T15:24:55.810Z,0.76
2022-11-29T15:30:20.873Z,0.77
2022-11-29T15:35:28.539Z,0.83
2022-11-29T15:40:37.528Z,0.87
2022-11-29T15:45:50.603Z,0.88
2022-11-29T15:51:04.965Z,0.87
2022-11-29T15:56:18.015Z,0.84
2022-11-29T16:01:25.199Z,0.86
2022-11-29T16:06:43.706Z,0.92
2022-11-29T16:11:51.571Z,0.97
2022-11-29T16:17:01.283Z,0.98
2022-11-29T16:22:18.797Z,0.95
2022-11-29T16:27:26.149Z,0.93
2022-11-29T16:32:35.767Z,0.95
2022-11-29T16:37:44.568Z,0.98
2022-11-29T16:43:09.131Z,0.98
2022-11-29T16:48:38.153Z,0.95
2022-11-29T16:53:49.895Z,0.93
2022-11-29T16:59:17.332Z,0.93
2022-11-29T17:04:32.161Z,0.94
2022-11-29T17:09:39.374Z,0.95
2022-11-29T17:14:46.814Z,0.97
2022-11-29T17:19:54.088Z,1.01
2022-11-29T17:25:04.369Z,0.99
2022-11-29T17:30:13.911Z,1.00
2022-11-29T17:42:41.443Z,1.08
2022-11-29T17:48:39.227Z,1.09
2022-11-29T17:53:53.175Z,1.05
2022-11-29T17:59:12.476Z,1.07
2022-11-29T18:04:20.062Z,1.08
2022-11-29T18:09:30.248Z,1.07
2022-11-29T18:14:39.153Z,1.06
2022-11-29T18:19:46.522Z,1.05
2022-11-29T18:25:05.397Z,1.07
2022-11-29T18:30:22.007Z,1.12
2022-11-29T18:35:43.925Z,1.11
2022-11-29T18:40:52.330Z,1.08
2022-11-29T18:46:15.838Z,1.09
2022-11-29T18:51:56.564Z,1.11
2022-11-29T18:57:03.708Z,1.12
2022-11-29T19:02:58.076Z,1.08
2022-11-29T19:29:51.933Z,1.07
2022-11-29T19:35:28.602Z,1.05
2022-11-29T19:40:54.031Z,1.05
2022-11-29T19:46:10.550Z,1.08
2022-11-29T19:51:27.705Z,1.10
2022-11-29T19:56:40.797Z,1.12
2022-11-29T20:02:37.267Z,1.10
2022-11-29T20:22:23.867Z,1.05
2022-11-29T20:27:31.596Z,1.03
2022-11-29T20:32:42.008Z,0.99
2022-11-29T20:38:08.233Z,0.99
2022-11-29T20:43:22.644Z,1.02
2022-11-29T20:48:41.856Z,1.03
2022-11-29T20:53:48.931Z,1.02
2022-11-29T20:58:56.510Z,0.99
2022-11-29T21:04:04.354Z,0.95
2022-11-29T21:09:12.473Z,0.94
2022-11-29T21:14:23.064Z,0.95
2022-11-29T21:19:31.430Z,0.96
2022-11-29T21:24:49.743Z,0.93
2022-11-29T21:29:55.920Z,0.89
2022-11-29T21:35:03.218Z,0.86
2022-11-29T21:40:13.080Z,0.88
2022-11-29T21:45:20.246Z,0.90
2022-11-29T21:50:27.444Z,0.88
2022-11-29T21:55:34.690Z,0.85
2022-11-29T22:00:42.059Z,0.85
2022-11-29T22:05:49.511Z,0.87
2022-11-29T22:11:04.868Z,0.90
2022-11-29T22:16:16.447Z,0.91
2022-11-29T22:21:23.861Z,0.89
2022-11-29T22:26:32.294Z,0.85
2022-11-29T22:31:39.683Z,0.86
2022-11-29T22:36:47.364Z,0.88
2022-11-29T22:41:55.353Z,0.86
2022-11-29T22:47:02.675Z,0.83
2022-11-29T22:52:09.649Z,0.81
2022-11-29T22:57:21.099Z,0.83
2022-11-29T23:02:29.247Z,0.85
2022-11-29T23:07:36.389Z,0.82
2022-11-29T23:12:44.708Z,0.79
2022-11-29T23:17:51.649Z,0.77
2022-11-29T23:22:58.559Z,0.77
2022-11-29T23:28:05.789Z,0.81
2022-11-29T23:33:12.853Z,0.79
2022-11-29T23:38:20.441Z,0.76
2022-11-29T23:43:29.431Z,0.75
2022-11-29T23:48:36.580Z,0.76
2022-11-29T23:53:43.986Z,0.78
2022-11-29T23:58:51.175Z,0.79
